createdAt,value
2018-02-21T00:02:19.556Z,101469.22
2018-02-21T00:04:47.183Z,101477.24
2018-02-21T00:07:14.762Z,101486.28
2018-02-21T00:09:42.320Z,101493.81
2018-02-21T00:12:09.879Z,101503.51
2018-02-21T00:14:37.436Z,101501.45
2018-02-21T00:17:05.000Z,101507.50
2018-02-21T00:19:32.552Z,101511.48
2018-02-21T00:22:00.145Z,101506.95
2018-02-21T00:24:27.702Z,101510.56
2018-02-21T00:26:55.321Z,101508.01
2018-02-21T00:29:22.853Z,101516.39
2018-02-21T00:31:50.411Z,101518.80
2018-02-21T00:34:17.969Z,101517.94
2018-02-21T00:36:45.536Z,101521.53
2018-02-21T00:39:13.084Z,101523.94
2018-02-21T00:41:40.607Z,101526.64
2018-02-21T00:44:08.176Z,101526.36
2018-02-21T00:46:35.790Z,101521.28
2018-02-21T00:49:03.324Z,101517.95
2018-02-21T00:51:30.942Z,101521.06
2018-02-21T00:53:58.581Z,101519.27
2018-02-21T00:56:26.166Z,101519.06
2018-02-21T00:58:53.800Z,101509.03
2018-02-21T01:01:21.374Z,101515.61
2018-02-21T01:03:48.931Z,101503.64
2018-02-21T01:06:16.466Z,101513.19
2018-02-21T01:08:44.016Z,101506.46
2018-02-21T01:11:11.577Z,101508.42
2018-02-21T01:13:39.166Z,101512.55
2018-02-21T01:16:06.765Z,101516.92
2018-02-21T01:18:34.324Z,101514.44
2018-02-21T01:21:01.840Z,101516.41
2018-02-21T01:23:29.371Z,101518.14
2018-02-21T01:25:56.928Z,101523.19
2018-02-21T01:28:24.507Z,101529.09
2018-02-21T01:30:52.042Z,101534.19
2018-02-21T01:33:19.677Z,101542.08
2018-02-21T01:35:47.276Z,101538.05
2018-02-21T01:38:14.798Z,101541.87
2018-02-21T01:40:42.370Z,101543.53
2018-02-21T01:43:09.918Z,101540.42
2018-02-21T01:45:37.446Z,101543.09
2018-02-21T01:48:04.997Z,101539.69
2018-02-21T01:50:53.276Z,101545.02
2018-02-21T01:53:20.803Z,101549.03
2018-02-21T01:55:48.342Z,101546.83
2018-02-21T01:58:15.875Z,101546.42
2018-02-21T02:00:43.497Z,101543.41
2018-02-21T02:03:11.020Z,101554.89
2018-02-21T02:05:38.565Z,101562.30
2018-02-21T02:08:06.111Z,101555.05
2018-02-21T02:10:33.719Z,101565.47
2018-02-21T02:13:01.265Z,101565.90
2018-02-21T02:15:28.867Z,101559.80
2018-02-21T02:17:56.405Z,101555.60
2018-02-21T02:20:24.005Z,101547.02
2018-02-21T02:22:51.566Z,101547.84
2018-02-21T02:25:19.115Z,101543.14
2018-02-21T02:27:46.670Z,101539.38
2018-02-21T02:30:14.201Z,101540.88
2018-02-21T02:32:41.789Z,101545.77
2018-02-21T02:35:09.411Z,101550.33
2018-02-21T02:37:36.970Z,101556.53
2018-02-21T02:40:04.532Z,101560.94
2018-02-21T02:42:32.123Z,101566.80
2018-02-21T02:44:59.685Z,101563.10
2018-02-21T02:47:27.222Z,101555.73
2018-02-21T02:49:54.872Z,101551.06
2018-02-21T02:52:22.430Z,101545.50
2018-02-21T02:54:49.946Z,101543.06
2018-02-21T02:57:17.583Z,101548.80
2018-02-21T02:59:45.163Z,101546.81
2018-02-21T03:02:12.708Z,101538.17
2018-02-21T03:04:40.248Z,101534.22
2018-02-21T03:07:07.832Z,101528.69
2018-02-21T03:09:35.443Z,101530.67
2018-02-21T03:12:03.015Z,101532.48
2018-02-21T03:14:30.561Z,101528.48
2018-02-21T03:16:58.086Z,101532.42
2018-02-21T03:19:25.616Z,101529.42
2018-02-21T03:21:53.186Z,101520.98
2018-02-21T03:24:20.771Z,101522.77
2018-02-21T03:26:48.314Z,101522.44
2018-02-21T03:29:15.886Z,101525.98
2018-02-21T03:31:43.430Z,101528.17
2018-02-21T03:34:11.010Z,101523.94
2018-02-21T03:36:38.599Z,101521.27
2018-02-21T03:39:06.178Z,101524.11
2018-02-21T03:41:33.790Z,101524.61
2018-02-21T03:44:01.317Z,101527.53
2018-02-21T03:46:28.847Z,101526.74
2018-02-21T03:48:56.424Z,101529.83
2018-02-21T03:51:23.979Z,101540.00
2018-02-21T03:53:52.516Z,101535.70
2018-02-21T03:56:20.029Z,101547.86
2018-02-21T03:58:47.658Z,101559.06
2018-02-21T04:01:15.196Z,101570.24
2018-02-21T04:03:42.755Z,101585.38
2018-02-21T04:06:10.270Z,101585.19
2018-02-21T04:08:37.873Z,101588.10
2018-02-21T04:11:05.427Z,101589.75
2018-02-21T04:13:32.999Z,101591.12
2018-02-21T04:16:00.558Z,101587.25
2018-02-21T04:18:28.096Z,101581.53
2018-02-21T04:20:55.648Z,101583.21
2018-02-21T04:23:23.192Z,101585.84
2018-02-21T04:25:50.844Z,101587.56
2018-02-21T04:28:18.401Z,101587.45
2018-02-21T04:30:45.958Z,101583.38
2018-02-21T04:33:13.473Z,101570.22
2018-02-21T04:35:40.996Z,101562.83
2018-02-21T04:38:08.549Z,101572.22
2018-02-21T04:40:36.133Z,101571.31
2018-02-21T04:43:03.701Z,101580.72
2018-02-21T04:45:31.230Z,101578.51
2018-02-21T04:47:58.882Z,101574.88
2018-02-21T04:50:26.427Z,101572.68
2018-02-21T04:52:53.969Z,101574.50
2018-02-21T04:55:27.150Z,101562.45
2018-02-21T05:00:58.390Z,101565.43
2018-02-21T05:03:25.934Z,101563.29
2018-02-21T05:05:53.479Z,101567.54
2018-02-21T05:08:21.008Z,101567.87
2018-02-21T05:10:48.568Z,101574.55
2018-02-21T05:13:16.115Z,101582.25
2018-02-21T05:15:43.734Z,101586.37
2018-02-21T05:18:11.288Z,101589.98
2018-02-21T05:20:38.839Z,101601.05
2018-02-21T05:23:06.406Z,101601.83
2018-02-21T05:25:33.966Z,101599.66
2018-02-21T05:28:01.529Z,101602.42
2018-02-21T05:30:29.076Z,101597.86
2018-02-21T05:32:56.774Z,101606.72
2018-02-21T05:35:24.326Z,101606.36
2018-02-21T05:37:51.957Z,101607.44
2018-02-21T05:40:19.557Z,101610.01
2018-02-21T05:42:47.170Z,101616.27
2018-02-21T05:45:14.698Z,101622.40
2018-02-21T05:47:42.225Z,101629.91
2018-02-21T05:50:09.727Z,101641.73
2018-02-21T05:52:37.239Z,101641.90
2018-02-21T05:55:04.745Z,101642.62
2018-02-21T05:57:32.312Z,101647.56
2018-02-21T05:59:59.858Z,101646.28
2018-02-21T06:02:27.385Z,101631.06
2018-02-21T06:04:54.926Z,101636.70
2018-02-21T06:07:22.516Z,101630.68
2018-02-21T06:09:50.075Z,101630.33
2018-02-21T06:12:17.594Z,101635.80
2018-02-21T06:14:45.114Z,101633.23
2018-02-21T06:17:12.680Z,101635.63
2018-02-21T06:19:40.240Z,101632.57
2018-02-21T06:22:10.464Z,101628.39
2018-02-21T06:24:38.116Z,101631.84
2018-02-21T06:27:05.665Z,101633.85
2018-02-21T06:29:33.220Z,101637.18
2018-02-21T06:32:01.066Z,101638.83
2018-02-21T06:34:28.620Z,101635.40
2018-02-21T06:36:56.173Z,101629.02
2018-02-21T06:39:23.728Z,101639.38
2018-02-21T06:41:51.284Z,101632.17
2018-02-21T06:44:18.811Z,101638.53
2018-02-21T06:46:46.335Z,101641.23
2018-02-21T06:49:13.933Z,101640.80
2018-02-21T06:51:41.570Z,101649.27
2018-02-21T06:54:09.231Z,101650.35
2018-02-21T06:56:36.850Z,101651.87
2018-02-21T06:59:04.473Z,101647.36
2018-02-21T07:01:32.092Z,101647.00
2018-02-21T07:03:59.684Z,101654.70
2018-02-21T07:06:27.232Z,101661.66
2018-02-21T07:08:54.829Z,101661.62
2018-02-21T07:11:22.382Z,101661.62
2018-02-21T07:13:49.922Z,101664.12
2018-02-21T07:16:17.462Z,101666.52
2018-02-21T07:18:45.038Z,101664.66
2018-02-21T07:21:12.579Z,101668.58
2018-02-21T07:23:40.153Z,101675.63
2018-02-21T07:26:07.713Z,101684.98
2018-02-21T07:28:35.247Z,101682.67
2018-02-21T07:31:02.819Z,101681.05
2018-02-21T07:33:30.393Z,101682.80
2018-02-21T07:35:58.016Z,101686.18
2018-02-21T07:38:25.622Z,101681.03
2018-02-21T07:40:53.179Z,101688.11
2018-02-21T07:43:20.772Z,101688.98
2018-02-21T07:45:48.363Z,101677.75
2018-02-21T07:48:15.964Z,101685.80
2018-02-21T07:50:43.540Z,101684.44
2018-02-21T07:53:11.080Z,101689.24
2018-02-21T07:55:38.651Z,101692.65
2018-02-21T07:58:08.462Z,101691.34
2018-02-21T08:00:36.070Z,101683.88
2018-02-21T08:03:03.724Z,101680.80
2018-02-21T08:05:31.315Z,101674.69
2018-02-21T08:07:58.896Z,101670.74
2018-02-21T08:10:26.470Z,101678.21
2018-02-21T08:12:54.691Z,101671.91
2018-02-21T08:15:25.667Z,101671.16
2018-02-21T08:17:53.214Z,101673.05
2018-02-21T08:20:20.736Z,101665.53
2018-02-21T08:22:48.413Z,101671.81
2018-02-21T08:25:16.025Z,101657.89
2018-02-21T08:27:43.637Z,101661.81
2018-02-21T08:30:11.208Z,101656.47
2018-02-21T08:32:38.727Z,101654.58
2018-02-21T08:35:06.252Z,101647.96
2018-02-21T08:37:33.774Z,101649.36
2018-02-21T08:40:01.390Z,101648.96
2018-02-21T08:42:28.949Z,101643.34
2018-02-21T08:44:56.498Z,101649.55
2018-02-21T08:47:24.093Z,101649.12
2018-02-21T08:49:51.697Z,101656.36
2018-02-21T08:52:19.262Z,101648.54
2018-02-21T08:54:46.822Z,101644.63
2018-02-21T08:57:14.383Z,101645.41
2018-02-21T08:59:41.934Z,101648.66
2018-02-21T09:02:09.503Z,101635.12
2018-02-21T09:04:37.050Z,101633.00
2018-02-21T09:07:04.690Z,101627.20
2018-02-21T09:09:32.271Z,101625.41
2018-02-21T09:11:59.828Z,101627.53
2018-02-21T09:14:27.380Z,101629.89
2018-02-21T09:16:54.916Z,101633.09
2018-02-21T09:19:22.461Z,101641.41
2018-02-21T09:21:50.062Z,101646.80
2018-02-21T09:24:17.569Z,101651.25
2018-02-21T09:26:45.152Z,101653.27
2018-02-21T09:29:12.729Z,101657.37
2018-02-21T09:31:40.302Z,101658.67
2018-02-21T09:34:07.865Z,101664.04
2018-02-21T09:36:35.389Z,101670.64
2018-02-21T09:39:03.006Z,101668.07
2018-02-21T09:41:30.557Z,101687.59
2018-02-21T09:43:58.234Z,101684.45
2018-02-21T09:46:25.796Z,101689.64
2018-02-21T09:48:53.373Z,101697.26
2018-02-21T09:51:20.933Z,101698.95
2018-02-21T09:53:48.487Z,101698.61
2018-02-21T09:56:16.033Z,101705.30
2018-02-21T09:58:43.600Z,101700.64
2018-02-21T10:01:11.183Z,101705.39
2018-02-21T10:03:40.504Z,101701.91
2018-02-21T10:06:08.176Z,101702.22
2018-02-21T10:08:35.778Z,101703.61
2018-02-21T10:11:03.343Z,101707.26
2018-02-21T10:13:31.078Z,101707.89
2018-02-21T10:15:58.670Z,101710.84
2018-02-21T10:18:26.277Z,101715.63
2018-02-21T10:20:53.859Z,101712.89
2018-02-21T10:23:21.611Z,101715.30
2018-02-21T10:25:49.388Z,101715.19
2018-02-21T10:28:17.040Z,101712.45
2018-02-21T10:30:44.593Z,101710.46
2018-02-21T10:33:12.147Z,101712.45
2018-02-21T10:35:39.733Z,101705.82
2018-02-21T10:38:07.303Z,101711.36
2018-02-21T10:40:34.825Z,101706.61
2018-02-21T10:43:02.389Z,101709.44
2018-02-21T10:45:29.898Z,101694.89
2018-02-21T10:47:57.501Z,101694.64
2018-02-21T10:50:25.515Z,101688.23
2018-02-21T10:52:53.063Z,101691.63
2018-02-21T10:55:20.695Z,101689.49
2018-02-21T10:57:48.496Z,101685.79
2018-02-21T11:00:21.608Z,101683.61
2018-02-21T11:02:49.256Z,101677.45
2018-02-21T11:05:16.879Z,101685.11
2018-02-21T11:07:44.407Z,101681.80
2018-02-21T11:10:12.049Z,101672.85
2018-02-21T11:12:39.624Z,101681.22
2018-02-21T11:15:07.140Z,101677.52
2018-02-21T11:17:34.739Z,101673.87
2018-02-21T11:20:02.320Z,101672.29
2018-02-21T11:22:29.867Z,101673.20
2018-02-21T11:24:57.409Z,101679.97
2018-02-21T11:27:25.991Z,101686.09
2018-02-21T11:29:53.531Z,101684.42
2018-02-21T11:32:21.106Z,101689.08
2018-02-21T11:34:48.662Z,101687.28
2018-02-21T11:37:16.218Z,101687.48
2018-02-21T11:39:43.834Z,101688.02
2018-02-21T11:42:11.439Z,101680.87
2018-02-21T11:44:39.001Z,101685.57
2018-02-21T11:47:07.611Z,101679.25
2018-02-21T11:49:35.152Z,101678.38
2018-02-21T11:52:02.666Z,101685.72
2018-02-21T11:54:30.192Z,101684.36
2018-02-21T11:56:57.787Z,101683.11
2018-02-21T11:59:25.345Z,101685.72
2018-02-21T12:01:52.907Z,101687.59
2018-02-21T12:04:20.532Z,101675.38
2018-02-21T12:06:48.101Z,101676.22
2018-02-21T12:09:15.685Z,101679.74
2018-02-21T12:11:43.284Z,101686.27
2018-02-21T12:14:10.837Z,101683.52
2018-02-21T12:16:38.362Z,101680.95
2018-02-21T12:19:05.882Z,101685.42
2018-02-21T12:21:33.430Z,101671.92
2018-02-21T12:24:01.066Z,101677.23
2018-02-21T12:26:28.619Z,101674.40
2018-02-21T12:28:56.167Z,101672.14
2018-02-21T12:31:23.695Z,101676.07
2018-02-21T12:33:51.358Z,101675.50
2018-02-21T12:36:18.898Z,101672.86
2018-02-21T12:38:52.140Z,101670.27
2018-02-21T12:41:25.197Z,101663.93
2018-02-21T12:43:52.747Z,101665.80
2018-02-21T12:46:20.338Z,101660.30
2018-02-21T12:48:48.013Z,101657.74
2018-02-21T12:51:15.632Z,101657.66
2018-02-21T12:53:43.176Z,101662.66
2018-02-21T12:56:10.719Z,101659.91
2018-02-21T12:58:38.272Z,101646.71
2018-02-21T13:01:06.658Z,101659.27
2018-02-21T13:03:34.228Z,101661.86
2018-02-21T13:06:01.854Z,101653.73
2018-02-21T13:08:29.393Z,101659.20
2018-02-21T13:10:56.949Z,101657.78
2018-02-21T13:13:24.512Z,101653.86
2018-02-21T13:15:52.067Z,101651.92
2018-02-21T13:18:19.678Z,101658.36
2018-02-21T13:20:47.233Z,101654.72
2018-02-21T13:23:14.797Z,101651.34
2018-02-21T13:25:42.382Z,101651.36
2018-02-21T13:28:09.979Z,101654.09
2018-02-21T13:30:37.540Z,101644.74
2018-02-21T13:33:05.060Z,101642.89
2018-02-21T13:35:32.656Z,101639.17
2018-02-21T13:38:00.198Z,101642.42
2018-02-21T13:40:27.754Z,101652.39
2018-02-21T13:42:55.316Z,101646.13
2018-02-21T13:45:22.893Z,101642.72
2018-02-21T13:47:50.399Z,101642.35
2018-02-21T13:50:17.976Z,101645.16
2018-02-21T13:52:45.551Z,101631.25
2018-02-21T13:55:13.066Z,101632.54
2018-02-21T13:57:40.664Z,101629.14
2018-02-21T14:00:08.182Z,101625.16
2018-02-21T14:02:35.712Z,101628.36
2018-02-21T14:05:03.304Z,101630.63
2018-02-21T14:07:30.814Z,101636.31
2018-02-21T14:09:58.373Z,101630.13
2018-02-21T14:12:25.925Z,101638.15
2018-02-21T14:14:53.526Z,101628.81
2018-02-21T14:17:21.096Z,101626.70
2018-02-21T14:19:48.686Z,101620.59
2018-02-21T14:22:16.232Z,101615.17
2018-02-21T14:24:43.785Z,101617.28
2018-02-21T14:27:11.361Z,101612.19
2018-02-21T14:29:38.909Z,101618.95
2018-02-21T14:32:06.483Z,101613.69
2018-02-21T14:34:34.067Z,101610.59
2018-02-21T14:37:01.648Z,101603.84
2018-02-21T14:39:29.306Z,101609.25
2018-02-21T14:41:57.000Z,101602.50
2018-02-21T14:44:24.611Z,101601.06
2018-02-21T14:46:52.233Z,101603.97
2018-02-21T14:49:20.041Z,101596.02
2018-02-21T14:51:47.677Z,101606.58
2018-02-21T14:54:15.269Z,101600.91
2018-02-21T14:56:42.890Z,101601.88
2018-02-21T14:59:10.549Z,101609.64
2018-02-21T15:01:38.111Z,101600.17
2018-02-21T15:04:05.708Z,101604.53
2018-02-21T15:06:33.246Z,101603.63
2018-02-21T15:09:00.800Z,101606.72
2018-02-21T15:11:28.408Z,101603.58
2018-02-21T15:13:56.018Z,101603.35
2018-02-21T15:16:25.476Z,101606.67
2018-02-21T15:18:53.031Z,101602.66
2018-02-21T15:21:20.646Z,101603.28
2018-02-21T15:23:48.198Z,101600.34
2018-02-21T15:26:15.838Z,101599.27
2018-02-21T15:28:43.459Z,101599.64
2018-02-21T15:31:10.957Z,101601.27
2018-02-21T15:33:38.510Z,101602.66
2018-02-21T15:36:06.077Z,101596.61
2018-02-21T15:38:33.673Z,101602.47
2018-02-21T15:41:01.208Z,101599.73
2018-02-21T15:43:28.730Z,101603.51
2018-02-21T15:45:56.259Z,101601.81
2018-02-21T15:48:23.788Z,101600.48
2018-02-21T15:50:51.307Z,101602.38
2018-02-21T15:53:18.832Z,101604.91
2018-02-21T15:55:46.356Z,101603.20
2018-02-21T15:58:13.890Z,101603.77
2018-02-21T16:00:41.424Z,101603.41
2018-02-21T16:03:08.955Z,101600.34
2018-02-21T16:05:36.476Z,101595.77
2018-02-21T16:08:04.002Z,101599.02
2018-02-21T16:10:31.533Z,101609.70
2018-02-21T16:12:59.092Z,101613.61
2018-02-21T16:15:26.623Z,101603.52
2018-02-21T16:17:54.187Z,101610.32
2018-02-21T16:20:21.724Z,101604.90
2018-02-21T16:22:49.268Z,101604.62
2018-02-21T16:25:16.794Z,101606.31
2018-02-21T16:27:44.390Z,101601.46
2018-02-21T16:30:12.163Z,101603.36
2018-02-21T16:32:39.715Z,101602.80
2018-02-21T16:35:07.254Z,101603.86
2018-02-21T16:37:34.793Z,101603.98
2018-02-21T16:40:02.355Z,101605.63
2018-02-21T16:42:29.948Z,101606.25
2018-02-21T16:44:57.478Z,101602.11
2018-02-21T16:47:26.133Z,101604.62
2018-02-21T16:49:53.741Z,101609.19
2018-02-21T16:52:21.283Z,101606.33
2018-02-21T16:54:48.877Z,101606.71
2018-02-21T16:57:16.448Z,101604.39
2018-02-21T16:59:43.978Z,101611.48
2018-02-21T17:02:11.515Z,101612.66
2018-02-21T17:04:39.089Z,101612.19
2018-02-21T17:07:06.666Z,101624.75
2018-02-21T17:09:34.183Z,101620.61
2018-02-21T17:12:01.722Z,101621.75
2018-02-21T17:14:29.303Z,101625.86
2018-02-21T17:16:56.836Z,101625.81
2018-02-21T17:19:24.358Z,101628.30
2018-02-21T17:21:51.905Z,101624.95
2018-02-21T17:24:19.464Z,101631.27
2018-02-21T17:26:47.178Z,101635.34
2018-02-21T17:29:14.734Z,101625.78
2018-02-21T17:31:42.245Z,101630.06
2018-02-21T17:34:09.947Z,101631.13
2018-02-21T17:36:37.612Z,101633.64
2018-02-21T17:39:05.933Z,101635.08
2018-02-21T17:41:33.491Z,101639.19
2018-02-21T17:44:01.031Z,101646.40
2018-02-21T17:46:28.682Z,101641.44
2018-02-21T17:48:56.334Z,101652.38
2018-02-21T17:51:23.907Z,101653.33
2018-02-21T17:53:51.443Z,101654.58
2018-02-21T17:56:19.031Z,101652.33
2018-02-21T17:58:46.598Z,101657.28
2018-02-21T18:01:14.174Z,101661.37
2018-02-21T18:03:42.375Z,101665.99
2018-02-21T18:06:10.212Z,101662.92
2018-02-21T18:08:37.841Z,101665.13
2018-02-21T18:11:05.429Z,101663.77
2018-02-21T18:13:32.986Z,101659.44
2018-02-21T18:16:00.545Z,101665.22
2018-02-21T18:18:28.485Z,101662.64
2018-02-21T18:20:58.532Z,101656.91
2018-02-21T18:23:28.953Z,101666.08
2018-02-21T18:26:00.128Z,101661.30
2018-02-21T18:28:29.338Z,101666.71
2018-02-21T18:30:56.901Z,101665.19
2018-02-21T18:33:25.985Z,101669.34
2018-02-21T18:35:53.864Z,101670.39
2018-02-21T18:38:21.468Z,101666.47
2018-02-21T18:40:49.037Z,101675.11
2018-02-21T18:43:16.641Z,101674.62
2018-02-21T18:45:44.204Z,101673.09
2018-02-21T18:48:11.782Z,101676.47
2018-02-21T18:50:39.527Z,101678.23
2018-02-21T18:53:07.083Z,101677.59
2018-02-21T18:55:34.643Z,101680.02
2018-02-21T18:58:04.056Z,101679.02
2018-02-21T19:00:31.626Z,101681.02
2018-02-21T19:02:59.175Z,101684.19
2018-02-21T19:05:26.756Z,101679.89
2018-02-21T19:07:54.274Z,101684.53
2018-02-21T19:10:21.825Z,101684.61
2018-02-21T19:12:49.359Z,101679.92
2018-02-21T19:15:16.936Z,101684.28
2018-02-21T19:17:44.470Z,101680.80
2018-02-21T19:20:12.077Z,101685.00
2018-02-21T19:22:39.609Z,101685.15
2018-02-21T19:25:07.152Z,101688.84
2018-02-21T19:27:34.713Z,101694.89
2018-02-21T19:30:02.499Z,101694.05
2018-02-21T19:32:30.049Z,101695.78
2018-02-21T19:34:57.607Z,101698.94
2018-02-21T19:37:25.188Z,101697.61
2018-02-21T19:39:52.697Z,101702.40
2018-02-21T19:42:20.295Z,101695.50
2018-02-21T19:44:47.837Z,101699.78
2018-02-21T19:47:15.350Z,101699.59
2018-02-21T19:49:42.984Z,101700.77
2018-02-21T19:52:10.942Z,101702.82
2018-02-21T19:54:38.493Z,101705.52
2018-02-21T19:57:06.100Z,101702.88
2018-02-21T19:59:33.684Z,101703.66
2018-02-21T20:02:01.220Z,101704.39
2018-02-21T20:04:28.772Z,101707.97
2018-02-21T20:06:56.323Z,101712.91
2018-02-21T20:09:23.864Z,101719.95
2018-02-21T20:11:51.443Z,101712.22
2018-02-21T20:14:18.994Z,101713.23
2018-02-21T20:16:46.511Z,101717.22
2018-02-21T20:19:14.665Z,101711.29
2018-02-21T20:21:42.266Z,101713.89
2018-02-21T20:24:09.821Z,101712.75
2018-02-21T20:26:37.375Z,101715.09
2018-02-21T20:29:04.914Z,101714.59
2018-02-21T20:31:32.561Z,101718.02
2018-02-21T20:34:00.082Z,101723.38
2018-02-21T20:36:27.632Z,101721.20
2018-02-21T20:38:55.233Z,101718.48
2018-02-21T20:41:22.746Z,101724.16
2018-02-21T20:43:50.278Z,101726.74
2018-02-21T20:46:17.821Z,101728.33
2018-02-21T20:48:45.340Z,101724.49
2018-02-21T20:51:12.934Z,101724.77
2018-02-21T20:53:40.471Z,101723.43
2018-02-21T20:56:08.274Z,101726.30
2018-02-21T20:58:35.888Z,101728.36
2018-02-21T21:01:03.680Z,101728.61
2018-02-21T21:03:31.235Z,101729.03
2018-02-21T21:05:58.915Z,101727.99
2018-02-21T21:08:26.447Z,101727.48
2018-02-21T21:10:54.128Z,101728.53
2018-02-21T21:13:21.672Z,101732.20
2018-02-21T21:15:49.212Z,101734.11
2018-02-21T21:18:16.791Z,101731.80
2018-02-21T21:20:44.321Z,101731.27
2018-02-21T21:23:11.846Z,101732.45
2018-02-21T21:25:39.376Z,101733.91
2018-02-21T21:28:06.913Z,101728.88
2018-02-21T21:30:34.495Z,101726.77
2018-02-21T21:33:02.035Z,101724.26
2018-02-21T21:35:29.607Z,101724.60
2018-02-21T21:37:57.161Z,101729.77
2018-02-21T21:40:24.745Z,101723.00
2018-02-21T21:42:52.384Z,101726.37
2018-02-21T21:45:19.963Z,101727.39
2018-02-21T21:47:47.500Z,101728.16
2018-02-21T21:50:15.051Z,101724.73
2018-02-21T21:52:42.653Z,101723.42
2018-02-21T21:55:10.205Z,101725.17
2018-02-21T21:57:37.833Z,101725.44
2018-02-21T22:00:05.359Z,101729.48
2018-02-21T22:02:33.002Z,101730.31
2018-02-21T22:05:01.042Z,101734.74
2018-02-21T22:07:42.404Z,101733.52
2018-02-21T22:10:10.803Z,101735.20
2018-02-21T22:12:38.358Z,101731.72
2018-02-21T22:15:05.946Z,101729.01
2018-02-21T22:17:33.994Z,101729.39
2018-02-21T22:20:01.539Z,101724.56
2018-02-21T22:22:29.099Z,101727.03
2018-02-21T22:24:56.738Z,101727.94
2018-02-21T22:27:24.283Z,101735.72
2018-02-21T22:29:51.806Z,101728.38
2018-02-21T22:32:19.356Z,101727.42
2018-02-21T22:34:46.998Z,101731.11
2018-02-21T22:37:14.556Z,101729.84
2018-02-21T22:39:42.123Z,101732.79
2018-02-21T22:42:09.676Z,101737.17
2018-02-21T22:44:37.247Z,101734.12
2018-02-21T22:47:04.853Z,101734.55
2018-02-21T22:49:32.542Z,101732.63
2018-02-21T22:52:00.127Z,101737.08
2018-02-21T22:54:27.688Z,101736.14
2018-02-21T22:56:55.239Z,101737.38
2018-02-21T22:59:23.030Z,101731.20
2018-02-21T23:01:50.600Z,101734.95
2018-02-21T23:04:18.171Z,101739.67
2018-02-21T23:06:45.814Z,101734.95
2018-02-21T23:09:13.392Z,101730.78
2018-02-21T23:11:40.925Z,101732.27
2018-02-21T23:14:08.500Z,101729.75
2018-02-21T23:16:36.079Z,101734.02
2018-02-21T23:19:03.629Z,101729.76
2018-02-21T23:21:31.154Z,101733.41
2018-02-21T23:23:58.668Z,101725.88
2018-02-21T23:26:26.248Z,101722.05
2018-02-21T23:28:53.765Z,101727.45
2018-02-21T23:31:21.315Z,101727.87
2018-02-21T23:33:48.821Z,101721.16
2018-02-21T23:36:16.435Z,101723.66
2018-02-21T23:38:43.982Z,101724.39
2018-02-21T23:41:11.536Z,101724.20
2018-02-21T23:43:39.225Z,101717.89
2018-02-21T23:46:06.778Z,101720.89
2018-02-21T23:48:34.350Z,101716.41
2018-02-21T23:51:01.933Z,101720.89
2018-02-21T23:53:29.492Z,101718.41
2018-02-21T23:55:57.012Z,101718.61
2018-02-21T23:58:24.533Z,101714.38
